createdAt,value
2023-03-13T00:01:50.539Z,75.85
2023-03-13T00:04:17.136Z,76.23
2023-03-13T00:06:43.675Z,76.10
2023-03-13T00:09:12.175Z,77.09
2023-03-13T00:11:38.721Z,75.74
2023-03-13T00:14:06.833Z,75.67
2023-03-13T00:16:35.644Z,77.06
2023-03-13T00:19:02.327Z,76.26
2023-03-13T00:21:29.496Z,76.56
2023-03-13T00:23:57.751Z,77.16
2023-03-13T00:26:26.147Z,76.00
2023-03-13T00:28:53.593Z,76.00
2023-03-13T00:31:23.144Z,75.48
2023-03-13T00:33:52.127Z,75.17
2023-03-13T00:36:24.153Z,74.63
2023-03-13T00:38:52.106Z,76.23
2023-03-13T00:41:22.235Z,75.86
2023-03-13T00:43:49.197Z,78.34
2023-03-13T00:46:18.407Z,77.11
2023-03-13T00:48:46.324Z,73.52
2023-03-13T00:51:14.561Z,75.03
2023-03-13T00:53:41.452Z,74.50
2023-03-13T00:56:13.079Z,74.34
2023-03-13T00:58:41.321Z,75.69
2023-03-13T01:01:14.451Z,75.01
2023-03-13T01:03:43.288Z,75.22
2023-03-13T01:06:13.695Z,75.01
2023-03-13T01:08:40.587Z,76.16
2023-03-13T01:11:13.620Z,77.07
2023-03-13T01:13:40.322Z,77.07
2023-03-13T01:16:09.982Z,76.93
2023-03-13T01:18:38.868Z,75.67
2023-03-13T01:21:06.435Z,75.31
2023-03-13T01:23:33.170Z,75.67
2023-03-13T01:26:00.068Z,74.86
2023-03-13T01:28:27.656Z,75.62
2023-03-13T01:30:54.580Z,75.87
2023-03-13T01:33:21.238Z,74.78
2023-03-13T01:35:48.064Z,74.31
2023-03-13T01:38:15.023Z,75.06
2023-03-13T01:40:49.006Z,75.14
2023-03-13T01:43:27.328Z,75.28
2023-03-13T01:46:14.784Z,74.79
2023-03-13T01:49:11.105Z,71.95
2023-03-13T01:51:59.556Z,72.10
2023-03-13T01:54:33.775Z,72.88
2023-03-13T01:57:03.319Z,73.21
2023-03-13T01:59:40.406Z,72.70
2023-03-13T02:02:08.104Z,73.64
2023-03-13T02:04:38.547Z,72.67
2023-03-13T02:07:16.061Z,71.88
2023-03-13T02:09:49.371Z,73.05
2023-03-13T02:12:22.566Z,73.02
2023-03-13T02:14:50.612Z,74.27
2023-03-13T02:17:17.938Z,74.32
2023-03-13T02:19:51.883Z,75.01
2023-03-13T02:22:27.693Z,74.29
2023-03-13T02:25:09.631Z,73.61
2023-03-13T02:27:36.481Z,74.38
2023-03-13T02:30:06.337Z,73.65
2023-03-13T02:32:33.358Z,73.77
2023-03-13T02:35:22.093Z,73.41
2023-03-13T02:37:53.612Z,73.51
2023-03-13T02:40:27.778Z,73.75
2023-03-13T02:42:59.002Z,74.40
2023-03-13T02:45:25.713Z,73.61
2023-03-13T02:47:52.502Z,74.55
2023-03-13T02:50:19.793Z,74.43
2023-03-13T02:52:54.873Z,73.40
2023-03-13T02:55:29.461Z,71.82
2023-03-13T02:57:56.330Z,72.89
2023-03-13T03:00:26.790Z,76.44
2023-03-13T03:02:55.925Z,79.06
2023-03-13T03:05:23.059Z,79.03
2023-03-13T03:07:51.170Z,80.47
2023-03-13T03:10:18.807Z,80.02
2023-03-13T03:12:45.721Z,80.95
2023-03-13T03:15:13.658Z,81.06
2023-03-13T03:17:44.582Z,83.62
2023-03-13T03:20:12.214Z,83.24
2023-03-13T03:22:42.034Z,82.65
2023-03-13T03:25:09.629Z,84.20
2023-03-13T03:27:36.552Z,84.50
2023-03-13T03:30:07.259Z,84.42
2023-03-13T03:32:35.648Z,85.66
2023-03-13T03:35:02.859Z,85.07
2023-03-13T03:37:29.620Z,85.02
2023-03-13T03:39:56.976Z,84.81
2023-03-13T03:42:23.831Z,85.38
2023-03-13T03:44:50.490Z,86.55
2023-03-13T03:47:18.199Z,86.70
2023-03-13T03:49:47.502Z,86.12
2023-03-13T03:52:15.231Z,84.70
2023-03-13T03:54:43.473Z,88.27
2023-03-13T03:57:10.206Z,87.48
2023-03-13T03:59:37.756Z,85.51
2023-03-13T04:02:07.655Z,86.35
2023-03-13T04:04:35.819Z,85.82
2023-03-13T04:07:09.513Z,85.26
2023-03-13T04:09:36.298Z,85.44
2023-03-13T04:12:05.156Z,85.41
2023-03-13T04:14:36.392Z,86.28
2023-03-13T04:17:06.203Z,85.77
2023-03-13T04:19:33.098Z,86.77
2023-03-13T04:22:00.327Z,86.38
2023-03-13T04:24:26.890Z,86.42
2023-03-13T04:26:56.054Z,87.04
2023-03-13T04:29:22.770Z,87.06
2023-03-13T04:32:04.022Z,84.72
2023-03-13T04:34:56.795Z,85.06
2023-03-13T04:37:42.124Z,85.29
2023-03-13T04:40:27.634Z,86.06
2023-03-13T04:43:20.628Z,87.27
2023-03-13T04:46:06.444Z,86.15
2023-03-13T04:48:51.336Z,86.09
2023-03-13T04:51:30.270Z,86.04
2023-03-13T04:54:17.105Z,85.73
2023-03-13T04:56:57.529Z,85.51
2023-03-13T04:59:53.789Z,85.64
2023-03-13T05:02:39.545Z,84.90
2023-03-13T05:05:26.550Z,86.31
2023-03-13T05:08:22.350Z,85.95
2023-03-13T05:11:09.209Z,84.63
2023-03-13T05:13:44.790Z,87.62
2023-03-13T05:16:25.154Z,85.52
2023-03-13T05:19:14.065Z,86.36
2023-03-13T05:21:59.247Z,86.72
2023-03-13T05:25:05.459Z,85.63
2023-03-13T05:27:49.038Z,87.38
2023-03-13T05:30:38.719Z,87.75
2023-03-13T05:33:23.827Z,86.45
2023-03-13T05:36:16.892Z,86.54
2023-03-13T05:39:04.302Z,87.53
2023-03-13T05:41:49.800Z,87.92
2023-03-13T05:44:35.313Z,87.15
2023-03-13T05:47:22.194Z,86.69
2023-03-13T05:50:07.614Z,86.79
2023-03-13T05:52:57.568Z,87.89
2023-03-13T05:55:40.925Z,87.50
2023-03-13T05:58:28.160Z,85.89
2023-03-13T06:01:33.175Z,85.92
2023-03-13T06:04:09.135Z,88.20
2023-03-13T06:06:37.409Z,86.45
2023-03-13T06:09:05.050Z,86.88
2023-03-13T06:11:33.388Z,86.21
2023-03-13T06:14:00.257Z,87.47
2023-03-13T06:16:41.437Z,87.13
2023-03-13T06:19:22.604Z,86.89
2023-03-13T06:21:49.303Z,85.60
2023-03-13T06:24:16.196Z,86.88
2023-03-13T06:26:43.059Z,85.60
2023-03-13T06:29:11.325Z,85.46
2023-03-13T06:31:38.145Z,87.57
2023-03-13T06:34:05.001Z,85.46
2023-03-13T06:36:31.719Z,86.73
2023-03-13T06:38:58.509Z,86.60
2023-03-13T06:41:24.999Z,88.61
2023-03-13T06:43:51.894Z,88.10
2023-03-13T06:46:24.372Z,85.95
2023-03-13T06:48:51.568Z,86.41
2023-03-13T06:51:24.917Z,86.65
2023-03-13T06:53:54.533Z,86.13
2023-03-13T06:56:22.186Z,85.80
2023-03-13T06:58:52.407Z,85.13
2023-03-13T11:31:16.175Z,69.70
2023-03-13T11:33:57.611Z,68.17
2023-03-13T11:36:39.521Z,65.66
2023-03-13T11:39:25.033Z,69.13
2023-03-13T11:42:12.197Z,68.64
2023-03-13T11:45:16.128Z,69.23
2023-03-13T11:47:51.906Z,65.95
2023-03-13T11:50:48.226Z,65.95
2023-03-13T11:53:23.970Z,68.81
2023-03-13T11:56:10.167Z,66.63
2023-03-13T11:58:58.346Z,67.67
2023-03-13T12:01:28.411Z,69.62
2023-03-13T12:04:07.405Z,69.82
2023-03-13T12:07:06.769Z,67.47
2023-03-13T12:09:41.894Z,69.08
2023-03-13T12:12:30.508Z,70.08
2023-03-13T12:15:05.069Z,66.96
2023-03-13T12:17:43.180Z,66.67
2023-03-13T12:20:26.863Z,67.34
2023-03-13T12:23:24.002Z,67.38
2023-03-13T12:26:07.678Z,66.03
2023-03-13T12:28:42.402Z,68.01
2023-03-13T12:31:40.681Z,67.02
2023-03-13T12:34:30.799Z,66.55
2023-03-13T12:37:07.453Z,64.13
2023-03-13T12:39:47.848Z,64.37
2023-03-13T12:42:26.627Z,65.72
2023-03-13T12:44:58.698Z,67.01
2023-03-13T12:47:32.839Z,69.09
2023-03-13T12:50:20.888Z,69.01
2023-03-13T12:52:54.727Z,68.04
2023-03-13T12:55:33.206Z,65.63
2023-03-13T12:58:37.772Z,65.62
2023-03-13T13:01:06.877Z,64.21
2023-03-13T13:04:37.677Z,65.99
2023-03-13T13:07:20.143Z,65.63
2023-03-13T13:10:04.204Z,65.28
2023-03-13T13:12:31.335Z,64.49
2023-03-13T13:15:04.097Z,67.26
2023-03-13T13:17:39.997Z,65.08
2023-03-13T13:20:30.559Z,62.84
2023-03-13T13:23:16.652Z,62.82
2023-03-13T13:25:43.714Z,66.20
2023-03-13T13:28:23.993Z,63.21
2023-03-13T13:30:56.671Z,62.86
2023-03-13T13:33:30.951Z,63.83
2023-03-13T13:36:10.101Z,65.95
2023-03-13T13:38:42.870Z,64.91
2023-03-13T13:41:11.997Z,65.73
2023-03-13T13:43:47.064Z,65.66
2023-03-13T13:46:34.919Z,64.49
2023-03-13T13:49:17.557Z,64.43
2023-03-13T13:52:05.918Z,62.23
2023-03-13T13:54:43.498Z,62.97
2023-03-13T13:57:31.278Z,63.77
2023-03-13T14:00:21.219Z,62.69
2023-03-13T14:02:56.813Z,59.61
2023-03-13T14:05:38.599Z,61.51
2023-03-13T14:08:19.867Z,62.37
2023-03-13T14:10:55.307Z,62.98
2023-03-13T14:13:22.391Z,60.17
2023-03-13T14:15:53.461Z,60.42
2023-03-13T14:18:24.694Z,60.97
2023-03-13T14:20:59.901Z,61.51
2023-03-13T14:23:46.767Z,62.16
2023-03-13T14:26:18.244Z,60.49
2023-03-13T14:28:48.844Z,60.44
2023-03-13T14:31:38.647Z,59.88
2023-03-13T14:34:13.026Z,61.01
2023-03-13T14:36:57.076Z,61.38
2023-03-13T14:39:31.077Z,63.09
2023-03-13T14:42:04.448Z,61.66
2023-03-13T14:44:36.408Z,59.96
2023-03-13T14:47:09.334Z,61.03
2023-03-13T14:49:37.101Z,60.35
2023-03-13T14:52:23.982Z,60.62
2023-03-13T14:55:22.432Z,63.04
2023-03-13T14:58:20.617Z,62.68
2023-03-13T15:00:49.253Z,62.35
2023-03-13T15:03:16.773Z,60.18
2023-03-13T15:05:45.954Z,59.70
2023-03-13T15:08:22.111Z,60.49
2023-03-13T15:10:49.941Z,58.35
2023-03-13T15:13:19.570Z,57.73
2023-03-13T15:15:50.004Z,59.92
2023-03-13T15:18:24.451Z,59.77
2023-03-13T15:20:52.945Z,58.20
2023-03-13T15:23:20.533Z,58.36
2023-03-13T15:25:47.786Z,59.44
2023-03-13T15:28:17.311Z,59.10
2023-03-13T15:30:45.335Z,58.44
2023-03-13T15:33:17.453Z,59.74
2023-03-13T15:35:44.882Z,62.48
2023-03-13T15:38:29.858Z,61.33
2023-03-13T15:40:56.592Z,61.21
2023-03-13T15:43:24.817Z,61.55
2023-03-13T15:45:52.113Z,61.21
2023-03-13T15:48:24.419Z,61.45
2023-03-13T15:51:04.148Z,61.69
2023-03-13T15:53:35.346Z,62.75
2023-03-13T15:56:10.867Z,62.43
2023-03-13T15:58:38.005Z,61.09
2023-03-13T16:01:04.777Z,62.14
2023-03-13T16:03:31.649Z,64.38
2023-03-13T16:05:58.476Z,72.64
2023-03-13T16:08:36.071Z,79.22
2023-03-13T16:11:04.040Z,79.94
2023-03-13T16:13:31.419Z,81.66
2023-03-13T16:15:58.558Z,82.09
2023-03-13T16:18:25.676Z,84.05
2023-03-13T16:20:53.032Z,83.09
2023-03-13T16:23:19.814Z,82.95
2023-03-13T16:25:48.667Z,83.86
2023-03-13T16:28:16.206Z,82.83
2023-03-13T16:30:47.419Z,82.55
2023-03-13T16:33:14.295Z,82.07
2023-03-13T16:35:41.040Z,82.60
2023-03-13T16:38:11.246Z,83.67
2023-03-13T16:40:38.216Z,85.17
2023-03-13T16:43:04.819Z,84.78
2023-03-13T16:45:31.358Z,86.77
2023-03-13T16:47:58.169Z,85.94
2023-03-13T16:50:36.098Z,84.53
2023-03-13T16:53:03.634Z,84.12
2023-03-13T16:55:36.228Z,84.71
2023-03-13T16:58:04.123Z,87.33
2023-03-13T17:00:32.116Z,85.87
2023-03-13T17:02:59.231Z,86.19
2023-03-13T17:05:27.111Z,85.82
2023-03-13T17:07:54.397Z,86.99
2023-03-13T17:10:22.758Z,85.91
2023-03-13T17:12:50.119Z,85.98
2023-03-13T17:15:17.918Z,85.35
2023-03-13T17:17:48.899Z,85.06
2023-03-13T17:24:03.980Z,84.57
2023-03-13T17:26:36.781Z,87.35
2023-03-13T17:29:04.810Z,89.90
2023-03-13T17:31:37.165Z,91.50
2023-03-13T17:34:05.331Z,88.99
2023-03-13T17:36:32.836Z,88.61
2023-03-13T17:39:01.357Z,88.39
2023-03-13T17:41:30.707Z,89.17
2023-03-13T17:43:57.671Z,88.49
2023-03-13T17:46:46.303Z,91.30
2023-03-13T17:49:15.203Z,88.81
2023-03-13T17:51:44.604Z,88.60
2023-03-13T17:54:13.715Z,91.13
2023-03-13T17:56:42.140Z,90.34
2023-03-13T17:59:17.889Z,90.59
2023-03-13T18:01:45.207Z,90.17
2023-03-13T18:04:12.023Z,89.29
2023-03-13T18:06:47.142Z,88.60
2023-03-13T18:09:20.709Z,88.43
2023-03-13T18:11:48.915Z,89.04
2023-03-13T18:14:15.558Z,88.51
2023-03-13T18:16:48.148Z,89.08
2023-03-13T18:19:21.287Z,89.60
2023-03-13T18:21:50.135Z,88.18
2023-03-13T18:24:17.979Z,89.41
2023-03-13T18:26:49.858Z,88.10
2023-03-13T18:29:26.481Z,88.67
2023-03-13T18:31:55.602Z,89.28
2023-03-13T18:34:23.516Z,88.79
2023-03-13T18:36:50.387Z,87.48
2023-03-13T18:39:18.742Z,88.42
2023-03-13T18:41:49.507Z,87.46
2023-03-13T18:44:18.850Z,86.13
2023-03-13T18:46:46.139Z,86.45
2023-03-13T18:49:20.231Z,87.33
2023-03-13T18:51:50.680Z,88.46
2023-03-13T18:54:19.241Z,87.70
2023-03-13T18:56:47.264Z,86.83
2023-03-13T18:59:22.007Z,87.56
2023-03-13T19:01:49.417Z,88.61
2023-03-13T19:04:17.060Z,88.98
2023-03-13T19:06:45.852Z,88.15
2023-03-13T19:09:42.349Z,89.44
2023-03-13T19:12:07.705Z,88.44
2023-03-13T19:14:34.329Z,88.39
2023-03-13T19:17:01.015Z,88.88
2023-03-13T19:19:27.800Z,87.51
2023-03-13T19:21:57.529Z,87.68
2023-03-13T19:24:26.769Z,86.29
2023-03-13T19:26:58.798Z,87.10
2023-03-13T19:29:27.951Z,87.67
2023-03-13T19:31:55.023Z,90.01
2023-03-13T19:34:21.839Z,88.06
2023-03-13T19:36:49.738Z,87.72
2023-03-13T19:39:18.839Z,89.87
2023-03-13T19:41:47.953Z,88.16
2023-03-13T19:44:15.704Z,88.32
2023-03-13T19:46:43.422Z,87.76
2023-03-13T19:49:15.896Z,86.97
2023-03-13T19:51:42.996Z,87.75
2023-03-13T19:54:10.952Z,87.54
2023-03-13T19:56:39.756Z,88.65
2023-03-13T19:59:12.975Z,87.34
2023-03-13T20:01:39.566Z,86.92
2023-03-13T20:04:06.334Z,88.63
2023-03-13T20:06:34.670Z,86.49
2023-03-13T20:09:04.762Z,85.68
2023-03-13T20:11:31.555Z,86.80
2023-03-13T20:13:58.339Z,85.51
2023-03-13T20:16:27.883Z,86.31
2023-03-13T20:18:57.999Z,86.51
2023-03-13T20:21:29.323Z,87.64
2023-03-13T20:23:57.422Z,86.79
2023-03-13T20:26:26.151Z,87.71
2023-03-13T20:28:53.397Z,89.43
2023-03-13T20:31:23.340Z,89.92
2023-03-13T20:33:49.946Z,86.15
2023-03-13T20:36:19.236Z,88.17
2023-03-13T20:38:46.851Z,86.98
2023-03-13T20:41:14.067Z,87.59
2023-03-13T20:43:40.784Z,87.38
2023-03-13T20:46:07.430Z,88.45
2023-03-13T20:48:39.332Z,86.98
2023-03-13T20:51:07.863Z,86.81
2023-03-13T20:53:36.769Z,85.57
2023-03-13T20:56:06.662Z,85.40
2023-03-13T20:58:34.009Z,84.72
2023-03-13T21:01:01.975Z,84.38
2023-03-13T21:03:29.176Z,84.55
2023-03-13T21:05:55.669Z,83.88
2023-03-13T21:08:22.953Z,85.51
2023-03-13T21:10:49.637Z,85.69
2023-03-13T21:13:16.174Z,87.88
2023-03-13T21:15:43.151Z,88.29
2023-03-13T21:18:09.872Z,88.06
2023-03-13T21:20:37.800Z,86.44
2023-03-13T21:23:04.399Z,88.66
2023-03-13T21:25:31.073Z,86.69
2023-03-13T21:27:57.772Z,88.02
2023-03-13T21:30:24.542Z,89.33
2023-03-13T21:32:51.267Z,87.52
2023-03-13T21:35:18.173Z,89.46
2023-03-13T21:37:45.066Z,87.62
2023-03-13T21:40:12.621Z,88.34
2023-03-13T21:42:39.488Z,89.90
2023-03-13T21:45:07.408Z,87.76
2023-03-13T21:47:37.038Z,89.43
2023-03-13T21:50:08.568Z,89.35
2023-03-13T21:52:41.198Z,91.00
2023-03-13T21:55:11.978Z,90.01
2023-03-13T21:57:38.768Z,89.94
